Time;durP1;ratioP1;P1;durP2;ratioP2;P2;SDS_P1;SDS_P2;PMS_P1;PMS_P2;Temp;Humidity;BMP_temperature;BMP_pressure;BME280_temperature;BME280_humidity;BME280_pressure;Samples;Min_cycle;Max_cycle;Signal;HPM_P1;HPM_P2
2023/10/10 00:00:57;;;;;;;17.98;11.95;;;;;;;15.38;100.00;102093.13;5094945;28;20059;-73
2023/10/10 00:03:27;;;;;;;12.00;10.70;;;;;;;15.38;100.00;102095.75;5089098;28;20386;-73
2023/10/10 00:05:53;;;;;;;13.98;11.40;;;;;;;15.38;100.00;102093.13;5095480;28;20028;-73
2023/10/10 00:08:23;;;;;;;13.00;11.10;;;;;;;15.39;100.00;102097.47;5083042;28;20133;-73
2023/10/10 00:10:50;;;;;;;15.02;11.85;;;;;;;15.38;100.00;102098.41;5094506;28;20044;-73
2023/10/10 00:13:19;;;;;;;11.75;10.55;;;;;;;15.37;100.00;102097.53;5095279;28;20035;-73
2023/10/10 00:15:50;;;;;;;14.32;11.10;;;;;;;15.34;100.00;102095.03;5094538;28;20122;-73
2023/10/10 00:18:19;;;;;;;14.73;11.18;;;;;;;15.32;100.00;102092.44;5093882;28;20330;-73
2023/10/10 00:21:06;;;;;;;14.98;11.15;;;;;;;15.29;100.00;102087.28;5093746;28;20055;-73
2023/10/10 00:23:42;;;;;;;11.57;10.10;;;;;;;15.28;100.00;102092.63;5081784;28;20048;-73
2023/10/10 00:26:12;;;;;;;12.30;9.82;;;;;;;15.25;100.00;102088.34;5095235;28;20091;-73
2023/10/10 00:28:41;;;;;;;13.02;10.23;;;;;;;15.24;100.00;102088.41;5094194;28;20338;-73
2023/10/10 00:31:10;;;;;;;12.43;10.13;;;;;;;15.24;100.00;102086.59;5094993;28;20028;-73
2023/10/10 00:33:38;;;;;;;;;;;;;;;15.21;100.00;102083.22;5094597;28;20356;-73
2023/10/10 00:36:12;;;;;;;11.25;9.73;;;;;;;15.19;100.00;102082.44;5095311;28;19949;-73
2023/10/10 00:38:38;;;;;;;15.23;9.63;;;;;;;15.14;100.00;102083.50;5093654;28;20031;-73
2023/10/10 00:41:07;;;;;;;12.43;9.73;;;;;;;15.13;100.00;102076.50;5094767;28;20480;-73
2023/10/10 00:43:33;;;;;;;11.23;8.95;;;;;;;15.13;100.00;102071.25;5094097;28;20075;-73
2023/10/10 00:46:04;;;;;;;13.75;10.07;;;;;;;15.12;100.00;102073.94;5094935;28;20028;-73
2023/10/10 00:48:32;;;;;;;11.15;9.93;;;;;;;15.12;100.00;102076.56;5094012;28;20047;-73
2023/10/10 00:51:10;;;;;;;11.63;10.15;;;;;;;15.10;100.00;102070.50;5093695;28;20028;-73
2023/10/10 00:53:39;;;;;;;13.32;10.98;;;;;;;15.09;100.00;102063.50;5080363;28;20028;-73
2023/10/10 00:56:08;;;;;;;12.55;10.05;;;;;;;15.09;100.00;102066.13;5094813;28;20031;-73
2023/10/10 00:58:42;;;;;;;12.75;10.13;;;;;;;15.07;100.00;102065.34;5094712;28;20055;-73
2023/10/10 01:04:39;;;;;;;13.32;10.23;;;;;;;15.03;100.00;102059.31;4882029;28;20039;-73
2023/10/10 01:07:08;;;;;;;11.88;10.27;;;;;;;15.05;100.00;102056.63;5092450;28;20035;-73
2023/10/10 01:09:39;;;;;;;11.60;10.13;;;;;;;15.02;100.00;102051.47;5093145;28;20289;-73
2023/10/10 01:12:05;;;;;;;15.40;10.73;;;;;;;14.98;100.00;102043.66;5094479;28;20035;-73
2023/10/10 01:14:32;;;;;;;13.45;10.82;;;;;;;15.00;100.00;102050.66;5093663;28;20044;-73
2023/10/10 01:16:58;;;;;;;15.57;10.70;;;;;;;14.97;100.00;102052.53;5097438;28;20382;-73
2023/10/10 01:19:28;;;;;;;17.00;11.95;;;;;;;14.97;100.00;102056.91;5098052;28;20286;-73
2023/10/10 01:21:57;;;;;;;16.38;11.60;;;;;;;14.96;100.00;102045.50;5097910;28;20119;-73
2023/10/10 01:24:27;;;;;;;15.13;10.90;;;;;;;14.98;100.00;102048.94;5097811;28;20039;-73
2023/10/10 01:26:54;;;;;;;14.38;10.23;;;;;;;14.96;100.00;102047.28;5098183;28;20039;-73
2023/10/10 01:29:27;;;;;;;15.40;10.25;;;;;;;14.94;100.00;102044.72;5098151;28;20342;-73
2023/10/10 01:31:54;;;;;;;14.98;10.57;;;;;;;14.94;100.00;102035.94;5098107;28;20028;-73
2023/10/10 01:34:43;;;;;;;13.45;10.68;;;;;;;14.93;100.00;102035.06;5092101;28;20036;-73
2023/10/10 01:37:22;;;;;;;13.23;11.00;;;;;;;14.89;100.00;102033.50;5097618;28;20063;-73
2023/10/10 01:39:54;;;;;;;14.32;11.25;;;;;;;14.88;100.00;102029.16;5096388;28;20028;-73
2023/10/10 01:42:35;;;;;;;14.90;11.23;;;;;;;14.86;100.00;102028.34;5097879;28;20510;-73
2023/10/10 01:45:07;;;;;;;14.93;11.18;;;;;;;14.85;100.00;102021.34;5096681;28;20404;-73
2023/10/10 01:47:35;;;;;;;14.90;11.98;;;;;;;14.83;100.00;102015.28;5089018;28;20059;-73
2023/10/10 01:50:07;;;;;;;16.00;11.73;;;;;;;14.81;100.00;102014.47;5095244;28;20246;-73
2023/10/10 01:52:46;;;;;;;16.15;12.20;;;;;;;14.81;100.00;102014.47;5092961;28;20040;-73
2023/10/10 01:55:12;;;;;;;20.70;12.43;;;;;;;14.80;100.00;102015.41;5097806;28;20096;-73
2023/10/10 01:57:37;;;;;;;16.48;11.77;;;;;;;14.79;100.00;102013.69;5096569;28;20338;-73
2023/10/10 02:00:19;;;;;;;17.45;12.90;;;;;;;14.80;100.00;102004.00;5097720;28;20199;-73
2023/10/10 02:02:45;;;;;;;14.27;12.60;;;;;;;14.78;100.00;101999.63;5092851;28;20440;-73
2023/10/10 02:05:13;;;;;;;17.75;13.38;;;;;;;14.78;100.00;102002.25;5097289;28;20123;-73
2023/10/10 02:07:39;;;;;;;21.17;14.48;;;;;;;14.78;100.00;102002.25;5096830;28;20036;-73
2023/10/10 02:12:38;;;;;;;18.52;13.85;;;;;;;14.78;100.00;102004.06;5091459;28;20068;-73
2023/10/10 02:15:11;;;;;;;21.13;14.18;;;;;;;14.78;100.00;102001.41;5093072;28;20032;-73
2023/10/10 02:17:41;;;;;;;23.00;15.13;;;;;;;14.77;100.00;102000.56;5091527;28;20077;-73
2023/10/10 02:20:33;;;;;;;19.48;14.75;;;;;;;14.80;100.00;102002.22;5092231;28;20038;-73
2023/10/10 02:23:45;;;;;;;18.23;14.30;;;;;;;14.80;100.00;102002.22;5097227;28;20063;-73
2023/10/10 02:25:46;;;;;;;20.65;14.20;;;;;;;14.81;100.00;101997.78;5085130;28;20063;-73
2023/10/10 02:30:46;;;;;;;20.20;14.02;;;;;;;14.80;100.00;101996.09;5096194;28;20115;-73
2023/10/10 02:35:55;;;;;;;20.58;15.70;;;;;;;14.79;100.00;101987.31;5094443;28;20032;-73
2023/10/10 02:38:23;;;;;;;22.02;15.90;;;;;;;14.76;100.00;101983.00;5096384;28;20024;-73
2023/10/10 02:41:12;;;;;;;21.02;15.43;;;;;;;14.72;100.00;101986.69;5096285;28;20286;-73
2023/10/10 02:43:46;;;;;;;18.30;13.68;;;;;;;14.71;100.00;101976.22;5096353;28;20039;-74
2023/10/10 02:46:17;;;;;;;17.90;13.98;;;;;;;14.70;100.00;101971.88;5076547;28;20268;-74
2023/10/10 02:48:44;;;;;;;19.75;14.25;;;;;;;14.69;100.00;101972.78;5075882;28;20367;-74
2023/10/10 02:51:15;;;;;;;19.58;14.00;;;;;;;14.68;100.00;101971.94;5095978;28;20231;-74
2023/10/10 02:53:46;;;;;;;22.25;16.27;;;;;;;14.67;100.00;101974.63;5095854;28;20032;-74
2023/10/10 02:56:16;;;;;;;22.83;16.15;;;;;;;14.68;100.00;101977.19;5096591;28;20051;-73
2023/10/10 02:58:43;;;;;;;21.35;15.45;;;;;;;14.70;100.00;101978.00;5095386;28;20353;-74
2023/10/10 03:01:19;;;;;;;19.15;14.68;;;;;;;14.73;100.00;101977.00;5096301;28;20039;-74
2023/10/10 03:03:44;;;;;;;20.17;14.68;;;;;;;14.75;100.00;101973.41;5085706;28;20097;-74
2023/10/10 03:06:10;;;;;;;20.73;15.52;;;;;;;14.76;100.00;101963.69;5079933;28;20099;-74
2023/10/10 03:08:48;;;;;;;28.33;17.00;;;;;;;14.73;100.00;101967.31;5083752;28;20032;-74
2023/10/10 03:11:35;;;;;;;25.38;17.50;;;;;;;14.72;100.00;101967.38;5095736;28;20040;-74
2023/10/10 03:14:07;;;;;;;22.25;16.48;;;;;;;14.71;100.00;101970.94;5096213;28;20302;-74
2023/10/10 03:16:44;;;;;;;24.67;17.02;;;;;;;14.68;100.00;101961.38;5095205;28;20035;-74
2023/10/10 03:29:21;;;;;;;28.27;18.00;;;;;;;14.69;100.00;101951.69;5096265;28;20416;-74
2023/10/10 03:32:59;;;;;;;28.50;18.90;;;;;;;14.67;100.00;101959.66;5095120;28;20039;-74
2023/10/10 03:34:54;;;;;;;27.67;18.48;;;;;;;14.66;100.00;101952.69;5094423;28;20039;-74
2023/10/10 05:23:58;;;;;;;30.67;21.40;;;;;;;14.35;100.00;101866.00;5088768;28;20047;-74
2023/10/10 05:26:24;;;;;;;33.85;23.40;;;;;;;14.32;100.00;101867.00;5091976;28;20035;-74
2023/10/10 05:28:49;;;;;;;35.00;23.45;;;;;;;14.32;100.00;101866.16;5088007;28;20030;-74
2023/10/10 05:31:21;;;;;;;38.63;23.40;;;;;;;14.31;100.00;101864.44;5089287;28;20016;-74
2023/10/10 05:33:47;;;;;;;32.22;22.15;;;;;;;14.32;100.00;101858.25;5094011;28;20031;-74
2023/10/10 05:36:13;;;;;;;33.60;22.02;;;;;;;14.31;100.00;101857.38;5092708;28;20331;-74
2023/10/10 05:38:39;;;;;;;38.40;24.55;;;;;;;14.31;100.00;101862.66;5096560;28;20048;-74
2023/10/10 05:41:10;;;;;;;40.55;25.27;;;;;;;14.31;100.00;101854.75;5093395;28;20231;-74
2023/10/10 05:43:36;;;;;;;38.67;24.63;;;;;;;14.30;100.00;101855.69;5092554;28;20035;-74
2023/10/10 05:46:04;;;;;;;36.88;23.65;;;;;;;14.33;100.00;101849.41;5092075;28;20099;-74
2023/10/10 05:48:31;;;;;;;38.65;25.25;;;;;;;14.31;100.00;101843.34;5090961;28;20035;-74
2023/10/10 05:50:57;;;;;;;36.10;23.27;;;;;;;14.33;100.00;101846.78;5087244;28;20032;-74
2023/10/10 05:53:24;;;;;;;34.33;22.85;;;;;;;14.34;100.00;101852.00;5093453;28;20338;-74
2023/10/10 05:55:53;;;;;;;35.75;24.48;;;;;;;14.35;100.00;101855.47;5089306;28;20042;-74
2023/10/10 05:58:20;;;;;;;35.05;23.10;;;;;;;14.35;100.00;101844.94;5088980;28;20027;-74
2023/10/10 06:00:48;;;;;;;37.40;24.65;;;;;;;14.34;100.00;101840.59;5087099;28;20036;-75
2023/10/10 06:03:16;;;;;;;36.05;23.33;;;;;;;14.35;100.00;101840.53;5088523;28;20042;-75
2023/10/10 06:05:44;;;;;;;45.13;27.58;;;;;;;14.34;100.00;101844.09;5085125;28;20028;-74
2023/10/10 06:08:10;;;;;;;;;;;;;;;14.35;100.00;101832.63;5086420;28;20059;-74
2023/10/10 06:10:36;;;;;;;42.08;26.45;;;;;;;14.34;100.00;101835.34;5088686;28;19926;-74
2023/10/10 06:13:04;;;;;;;36.88;24.77;;;;;;;14.36;100.00;101844.03;5090375;28;20031;-75
2023/10/10 06:15:33;;;;;;;43.70;27.08;;;;;;;14.34;100.00;101838.81;5090844;28;20032;-74
2023/10/10 06:18:08;;;;;;;41.35;25.52;;;;;;;14.34;100.00;101835.34;5091051;28;20389;-74
2023/10/10 06:20:40;;;;;;;40.65;25.83;;;;;;;14.35;100.00;101842.28;5088995;28;20374;-74
2023/10/10 06:23:07;;;;;;;37.05;25.45;;;;;;;14.34;100.00;101841.44;5088154;28;20293;-75
2023/10/10 06:25:32;;;;;;;39.67;25.98;;;;;;;14.35;100.00;101845.81;5090336;28;20028;-74
2023/10/10 06:28:00;;;;;;;35.42;24.08;;;;;;;14.35;100.00;101840.53;5089067;28;20394;-74
2023/10/10 06:30:26;;;;;;;43.65;28.35;;;;;;;14.33;100.00;101834.44;5095170;28;20032;-74
2023/10/10 06:32:58;;;;;;;39.58;26.08;;;;;;;14.35;100.00;101840.53;5084766;28;20047;-74
2023/10/10 06:37:53;;;;;;;47.58;29.27;;;;;;;14.37;100.00;101840.44;5085432;28;20125;-74
2023/10/10 06:40:28;;;;;;;45.65;29.48;;;;;;;14.37;100.00;101836.06;5074726;28;20039;-74
2023/10/10 06:42:56;;;;;;;58.42;32.72;;;;;;;14.35;100.00;101837.91;5084725;28;20262;-74
2023/10/10 06:45:26;;;;;;;44.95;28.17;;;;;;;14.37;100.00;101836.06;5088986;28;20334;-74
2023/10/10 06:47:54;;;;;;;41.55;26.05;;;;;;;14.40;100.00;101835.91;5090802;28;20253;-75
2023/10/10 06:50:22;;;;;;;49.00;30.13;;;;;;;14.40;100.00;101835.91;5084211;28;20029;-74
2023/10/10 06:52:55;;;;;;;51.63;31.83;;;;;;;14.41;100.00;101836.78;5088459;28;20219;-74
2023/10/10 06:55:22;;;;;;;56.10;32.45;;;;;;;14.41;100.00;101831.53;5086533;28;20043;-74
2023/10/10 06:57:58;;;;;;;51.63;31.17;;;;;;;14.45;100.00;101832.25;5085696;28;20032;-74
2023/10/10 07:00:28;;;;;;;46.70;28.30;;;;;;;14.48;100.00;101834.75;5087129;28;20073;-74
2023/10/10 07:02:55;;;;;;;39.30;26.27;;;;;;;14.51;100.00;101840.75;5079034;28;20036;-74
2023/10/10 07:05:26;;;;;;;40.47;26.15;;;;;;;14.52;100.00;101839.00;5083184;28;20081;-74
2023/10/10 07:07:58;;;;;;;39.97;25.20;;;;;;;14.56;100.00;101832.66;5089069;28;20688;-74
2023/10/10 07:10:33;;;;;;;34.45;24.63;;;;;;;14.56;100.00;101833.50;5091868;28;20294;-74
2023/10/10 07:12:59;;;;;;;51.25;32.08;;;;;;;14.58;100.00;101823.78;5082386;28;20024;-74
2023/10/10 07:15:35;;;;;;;49.08;30.52;;;;;;;14.61;100.00;101821.94;5087387;28;20350;-74
2023/10/10 07:18:08;;;;;;;48.28;30.88;;;;;;;14.64;100.00;101832.38;5084830;28;20476;-74
2023/10/10 07:23:20;;;;;;;47.95;31.40;;;;;;;14.67;100.00;101824.34;5083479;28;20404;-74
2023/10/10 07:25:58;;;;;;;46.40;29.65;;;;;;;14.69;100.00;101830.41;5087336;28;20036;-74
2023/10/10 07:28:26;;;;;;;47.22;27.95;;;;;;;14.70;100.00;101827.72;5088181;28;20028;-74
2023/10/10 07:30:52;;;;;;;44.15;28.92;;;;;;;14.74;100.00;101831.91;5086058;28;20070;-74
2023/10/10 07:33:22;;;;;;;45.60;29.63;;;;;;;14.75;100.00;101836.28;5086339;28;20106;-74
2023/10/10 07:35:53;;;;;;;47.00;31.58;;;;;;;14.77;100.00;101839.72;5089651;28;20149;-74
2023/10/10 07:38:23;;;;;;;45.45;30.20;;;;;;;14.78;100.00;101836.13;5091650;28;20032;-74
2023/10/10 07:40:51;;;;;;;55.58;34.08;;;;;;;14.80;100.00;101825.53;5084415;28;20048;-74
2023/10/10 07:43:17;;;;;;;50.58;32.20;;;;;;;14.81;100.00;101837.81;5085662;28;20035;-74
2023/10/10 07:50:55;;;;;;;47.25;29.05;;;;;;;14.87;100.00;101828.75;5086330;28;20032;-74
2023/10/10 07:53:28;;;;;;;49.47;33.40;;;;;;;14.87;100.00;101832.25;5087457;28;20081;-74
2023/10/10 07:56:00;;;;;;;49.40;32.30;;;;;;;14.90;100.00;101823.38;5087299;28;20106;-74
2023/10/10 07:58:49;;;;;;;52.20;33.00;;;;;;;14.92;100.00;101824.16;5093583;28;20040;-74
2023/10/10 08:01:19;;;;;;;48.42;31.48;;;;;;;14.94;100.00;101828.44;5087311;28;20315;-74
2023/10/10 08:03:46;;;;;;;51.60;34.17;;;;;;;14.96;100.00;101831.84;5081414;28;20069;-74
2023/10/10 08:06:17;;;;;;;50.55;32.30;;;;;;;15.00;100.00;101831.72;5086123;28;20051;-74
2023/10/10 08:08:43;;;;;;;56.85;36.95;;;;;;;15.02;100.00;101829.88;5083371;28;20072;-74
2023/10/10 08:11:24;;;;;;;61.45;37.55;;;;;;;15.05;100.00;101829.75;5091514;28;20080;-74
2023/10/10 08:13:49;;;;;;;48.58;31.77;;;;;;;15.08;100.00;101833.13;5084906;28;20059;-74
2023/10/10 08:16:25;;;;;;;47.38;30.52;;;;;;;15.11;100.00;101838.25;5085389;28;20036;-74
2023/10/10 08:18:52;;;;;;;48.63;30.95;;;;;;;15.13;100.00;101839.06;5083847;28;20060;-74
2023/10/10 08:21:22;;;;;;;52.22;33.10;;;;;;;15.15;100.00;101834.56;5075800;28;20388;-74
2023/10/10 08:23:49;;;;;;;43.97;28.52;;;;;;;15.19;100.00;101834.41;5090971;28;20226;-74
2023/10/10 08:26:24;;;;;;;44.28;27.15;;;;;;;15.22;100.00;101836.91;5092469;28;20028;-74
2023/10/10 08:28:50;;;;;;;58.35;34.88;;;;;;;15.23;100.00;101839.50;5086941;28;20032;-74
2023/10/10 08:31:16;;;;;;;52.80;33.10;;;;;;;15.26;100.00;101842.00;5091564;28;20024;-74
2023/10/10 08:33:48;;;;;;;47.92;30.58;;;;;;;15.30;100.00;101838.28;5081651;28;20339;-74
2023/10/10 08:36:23;;;;;;;50.80;32.42;;;;;;;15.33;100.00;101837.28;5090180;28;20038;-74
2023/10/10 08:39:17;;;;;;;46.88;29.17;;;;;;;15.38;100.00;101834.47;5084850;28;20246;-74
2023/10/10 08:41:43;;;;;;;57.92;34.92;;;;;;;15.40;100.00;101833.44;5083679;28;20188;-74
2023/10/10 08:44:10;;;;;;;53.83;34.45;;;;;;;15.43;100.00;101833.31;5093357;28;20093;-74
2023/10/10 08:46:46;;;;;;;57.95;33.30;;;;;;;15.47;100.00;101829.59;5080014;28;20348;-74
2023/10/10 08:49:15;;;;;;;51.25;31.95;;;;;;;15.49;100.00;101832.19;5084639;28;20315;-74
2023/10/10 08:51:42;;;;;;;48.40;31.90;;;;;;;15.52;100.00;101842.63;5086244;28;20400;-74
2023/10/10 08:54:12;;;;;;;46.33;31.42;;;;;;;15.52;100.00;101840.81;5087660;28;20039;-74
2023/10/10 08:56:59;;;;;;;38.47;26.27;;;;;;;15.53;100.00;101836.38;5091425;28;20047;-74
2023/10/10 08:59:25;;;;;;;53.40;30.58;;;;;;;15.52;100.00;101834.69;5093037;28;20028;-74
2023/10/10 09:01:51;;;;;;;43.30;27.25;;;;;;;15.55;100.00;101842.44;5091985;28;20212;-74
2023/10/10 09:04:20;;;;;;;37.65;24.63;;;;;;;15.57;100.00;101840.59;5083764;28;20109;-74
2023/10/10 09:09:34;;;;;;;39.67;26.25;;;;;;;15.63;100.00;101835.06;5080486;28;20185;-74
2023/10/10 09:12:09;;;;;;;50.30;29.13;;;;;;;15.65;100.00;101827.06;5082620;28;20089;-74
2023/10/10 09:14:43;;;;;;;52.00;31.60;;;;;;;15.68;100.00;101826.91;5089283;28;20132;-74
2023/10/10 09:17:11;;;;;;;48.85;29.80;;;;;;;15.70;100.00;101822.44;5086167;28;20347;-74
2023/10/10 09:19:46;;;;;;;50.60;32.72;;;;;;;15.73;100.00;101822.28;5090873;28;20326;-74
2023/10/10 09:22:25;;;;;;;43.22;27.80;;;;;;;15.78;100.00;101825.59;5086799;28;20009;-74
2023/10/10 09:24:55;;;;;;;43.90;27.05;;;;;;;15.82;100.00;101827.16;5088948;28;20039;-74
2023/10/10 09:27:27;;;;;;;38.13;25.02;;;;;;;15.86;100.00;101831.38;5086701;28;20047;-74
2023/10/10 09:29:56;;;;;;;44.90;27.50;;;;;;;15.92;100.00;101833.72;5091669;28;20297;-74
2023/10/10 09:32:36;;;;;;;50.63;30.60;;;;;;;15.99;100.00;101830.78;5085795;28;20039;-74
2023/10/10 09:35:05;;;;;;;44.70;27.02;;;;;;;16.03;100.00;101835.00;5082109;28;20040;-74
2023/10/10 09:37:35;;;;;;;50.03;29.02;;;;;;;16.07;100.00;101831.28;5082950;28;20036;-74
2023/10/10 09:40:07;;;;;;;45.22;27.77;;;;;;;16.12;100.00;101840.69;5086142;28;20352;-74
2023/10/10 09:43:03;;;;;;;49.42;28.65;;;;;;;16.15;100.00;101834.38;5089039;28;20216;-74
2023/10/10 09:45:51;;;;;;;43.05;27.25;;;;;;;16.19;100.00;101837.75;5076682;28;20327;-74
2023/10/10 09:48:28;;;;;;;;;;;;;;;16.21;100.00;101838.53;5078206;28;20235;-74
2023/10/10 09:51:30;;;;;;;41.45;25.05;;;;;;;16.24;100.00;101831.31;5096095;28;19908;-74
2023/10/10 09:54:15;;;;;;;48.78;29.08;;;;;;;16.27;100.00;101827.66;5093936;28;20455;-74
2023/10/10 09:56:46;;;;;;;59.38;30.77;;;;;;;16.32;100.00;101828.31;5095905;28;20032;-74
2023/10/10 09:59:19;;;;;;;37.88;25.45;;;;;;;16.34;100.00;101823.78;5093894;28;20032;-74
2023/10/10 10:01:59;;;;;;;37.25;24.52;;;;;;;16.37;100.00;101831.59;5095585;28;20035;-75
2023/10/10 10:04:28;;;;;;;38.38;23.23;;;;;;;16.41;100.00;101832.25;5084376;28;20039;-75
2023/10/10 10:07:01;;;;;;;27.08;18.60;;;;;;;16.45;100.00;101831.19;5092934;28;20250;-74
2023/10/10 10:09:51;;;;;;;55.88;29.83;;;;;;;16.48;100.00;101836.31;5085725;28;20032;-75
2023/10/10 10:12:45;;;;;;;42.00;25.63;;;;;;;16.52;100.00;101829.97;5095688;28;20200;-74
2023/10/10 10:15:28;;;;;;;51.03;28.38;;;;;;;16.56;100.00;101822.72;5082706;28;20223;-74
2023/10/10 10:18:11;;;;;;;40.50;26.13;;;;;;;16.60;100.00;101822.47;5083355;28;20334;-74
2023/10/10 10:20:46;;;;;;;48.63;28.10;;;;;;;16.64;100.00;101826.69;5076066;28;20044;-75
2023/10/10 10:23:27;;;;;;;42.17;23.90;;;;;;;16.67;100.00;101821.25;5087146;28;20497;-75
2023/10/10 10:25:54;;;;;;;31.95;19.90;;;;;;;16.70;100.00;101833.47;5095062;28;20338;-74
2023/10/10 10:28:28;;;;;;;27.17;18.35;;;;;;;16.71;100.00;101829.88;5089999;28;20041;-75
2023/10/10 10:30:54;;;;;;;42.17;25.33;;;;;;;16.77;100.00;101836.63;5087145;28;20224;-74
2023/10/10 10:33:23;;;;;;;32.95;21.52;;;;;;;16.81;100.00;101840.88;5086821;28;20080;-74
2023/10/10 10:35:57;;;;;;;33.90;22.38;;;;;;;16.83;100.00;101831.09;5092467;28;20258;-75
2023/10/10 10:38:23;;;;;;;25.67;18.70;;;;;;;16.85;100.00;101837.16;5090678;28;20036;-74
2023/10/10 10:40:50;;;;;;;26.95;18.45;;;;;;;16.88;100.00;101836.97;5088975;28;20235;-75
2023/10/10 10:43:31;;;;;;;41.78;23.60;;;;;;;16.91;100.00;101831.53;5085366;28;20077;-75
2023/10/10 10:46:14;;;;;;;39.83;21.92;;;;;;;16.95;100.00;101826.94;5096026;28;20134;-74
2023/10/10 10:48:47;;;;;;;31.77;19.75;;;;;;;16.99;100.00;101839.06;5080691;28;20040;-74
2023/10/10 10:51:25;;;;;;;41.00;22.40;;;;;;;17.05;100.00;101836.97;5087346;28;20388;-74
2023/10/10 10:54:02;;;;;;;36.20;21.67;;;;;;;17.10;100.00;101831.44;5090891;28;20366;-74
2023/10/10 10:59:12;;;;;;;28.92;19.23;;;;;;;17.18;100.00;101831.88;5090134;28;20106;-75
2023/10/10 11:01:51;;;;;;;28.30;18.98;;;;;;;17.22;100.00;101829.94;5092036;28;20208;-74
2023/10/10 11:07:04;;;;;;;37.92;20.55;;;;;;;17.27;100.00;101828.75;5079289;28;20042;-75
2023/10/10 11:09:31;;;;;;;29.85;18.55;;;;;;;17.30;100.00;101829.53;5094848;28;20060;-74
2023/10/10 11:12:04;;;;;;;29.90;20.65;;;;;;;17.30;100.00;101833.03;5094465;28;20046;-75
2023/10/10 11:14:34;;;;;;;31.63;17.48;;;;;;;17.34;100.00;101815.22;5084336;28;20032;-74
2023/10/10 11:17:00;;;;;;;34.00;21.85;;;;;;;17.36;100.00;101810.69;5092739;28;20127;-75
2023/10/10 11:22:02;;;;;;;32.40;18.17;;;;;;;17.38;100.00;101803.50;5091337;28;20044;-75
2023/10/10 11:24:29;;;;;;;36.60;20.50;;;;;;;17.40;100.00;101797.19;5084010;28;20316;-75
2023/10/10 11:27:07;;;;;;;32.42;20.08;;;;;;;17.43;100.00;101796.16;5087114;28;20328;-75
2023/10/10 11:32:29;;;;;;;32.00;19.73;;;;;;;17.49;100.00;101790.53;5079744;28;20455;-74
2023/10/10 11:37:48;;;;;;;23.83;14.60;;;;;;;17.57;100.00;101775.09;5094327;28;20111;-75
2023/10/10 11:43:03;;;;;;;36.63;18.35;;;;;;;17.64;100.00;101783.53;5095431;28;20372;-75
2023/10/10 11:45:30;;;;;;;19.67;15.20;;;;;;;17.70;100.00;101771.72;5084931;28;20040;-75
2023/10/10 11:48:05;;;;;;;26.02;16.90;;;;;;;17.74;100.00;101768.84;5094690;28;20035;-75
2023/10/10 11:50:47;;;;;;;19.83;14.85;;;;;;;17.76;100.00;101759.00;5094336;28;20023;-75
2023/10/10 11:53:23;;;;;;;25.45;16.63;;;;;;;17.79;100.00;101760.63;5086507;28;20043;-75
2023/10/10 11:55:49;;;;;;;26.83;16.70;;;;;;;17.84;100.00;101761.22;5086237;28;20035;-75
2023/10/10 11:58:18;;;;;;;22.77;14.80;;;;;;;17.90;100.00;101762.69;5090850;28;20028;-75
2023/10/10 12:00:45;;;;;;;20.83;13.27;;;;;;;17.94;100.00;101759.78;5086749;28;20087;-75
2023/10/10 12:03:19;;;;;;;24.55;14.73;;;;;;;17.98;100.00;101769.28;5075973;28;20036;-75
2023/10/10 12:05:47;;;;;;;25.38;14.15;;;;;;;18.03;100.00;101753.97;5094750;28;20411;-75
2023/10/10 12:08:15;;;;;;;;;;;;;;;18.06;100.00;101763.53;5095240;28;20038;-75
2023/10/10 12:13:09;;;;;;;23.92;14.95;;;;;;;18.18;100.00;101761.97;5094930;28;20032;-75
2023/10/10 12:15:39;;;;;;;;;;;;;;;18.22;100.00;101752.88;5094214;28;20048;-74
2023/10/10 12:18:11;;;;;;;23.02;14.52;;;;;;;18.26;100.00;101751.75;5093948;28;20258;-75
2023/10/10 12:20:43;;;;;;;29.38;15.73;;;;;;;18.31;100.00;101751.50;5094098;28;20381;-75
2023/10/10 12:23:12;;;;;;;27.73;15.30;;;;;;;18.35;100.00;101742.41;5095118;28;20024;-75
2023/10/10 12:25:41;;;;;;;18.40;12.57;;;;;;;18.40;100.00;101745.66;5090806;28;20035;-75
2023/10/10 12:28:12;;;;;;;23.02;13.52;;;;;;;18.46;100.00;101736.47;5094589;28;20238;-75
2023/10/10 12:30:41;;;;;;;20.05;12.65;;;;;;;18.51;100.00;101735.25;5086491;28;20102;-75
2023/10/10 12:33:08;;;;;;;19.58;13.15;;;;;;;18.57;100.00;101736.69;5093745;28;20046;-75
2023/10/10 12:35:35;;;;;;;17.52;11.77;;;;;;;18.60;100.00;101741.81;5093069;28;20047;-75
2023/10/10 12:38:01;;;;;;;23.05;13.80;;;;;;;18.64;100.00;101734.53;5094523;28;20038;-75
2023/10/10 12:40:33;;;;;;;22.55;12.25;;;;;;;18.68;100.00;101738.69;5093201;28;20035;-75
2023/10/10 12:43:03;;;;;;;16.35;11.45;;;;;;;18.70;100.00;101732.34;5094808;28;20094;-75
2023/10/10 12:45:29;;;;;;;16.95;10.48;;;;;;;18.74;100.00;101730.38;5092081;28;20247;-75
2023/10/10 12:47:57;;;;;;;16.42;11.60;;;;;;;18.75;100.00;101727.59;5094803;28;20361;-75
2023/10/10 12:50:26;;;;;;;21.37;12.63;;;;;;;18.78;100.00;101727.41;5094232;28;20338;-75
2023/10/10 12:53:39;;;;;;;13.55;10.48;;;;;;;18.84;100.00;101723.56;5090865;28;20283;-75
2023/10/10 12:55:48;;;;;;;20.77;12.25;;;;;;;18.89;100.00;101725.94;5088872;28;20683;-75
2023/10/10 12:58:16;;;;;;;18.58;10.85;;;;;;;18.95;100.00;101729.06;5093519;28;20347;-75
2023/10/10 13:00:50;;;;;;;22.77;12.87;;;;;;;19.01;100.00;101724.31;5092631;28;20036;-75
2023/10/10 13:03:20;;;;;;;26.13;12.30;;;;;;;19.03;100.00;101731.25;5093875;28;20085;-75
2023/10/10 13:05:52;;;;;;;17.13;9.90;;;;;;;19.07;98.76;101729.28;5093714;28;20110;-75
2023/10/10 13:08:20;;;;;;;15.82;8.98;;;;;;;19.07;93.66;101738.06;5094158;28;20039;-75
2023/10/10 13:10:46;;;;;;;14.23;7.43;;;;;;;19.11;92.50;101736.94;5086884;28;20040;-75
2023/10/10 13:13:24;;;;;;;16.20;6.97;;;;;;;19.13;91.24;101735.03;5097818;28;20036;-75
2023/10/10 13:15:52;;;;;;;18.73;7.47;;;;;;;19.15;87.66;101727.81;5086054;28;20036;-75
2023/10/10 13:18:20;;;;;;;9.93;6.03;;;;;;;19.15;87.17;101727.81;5076790;28;20043;-75
2023/10/10 13:20:50;;;;;;;9.48;6.15;;;;;;;19.15;88.54;101727.81;5081672;28;20096;-75
2023/10/10 13:23:19;;;;;;;11.18;6.93;;;;;;;19.14;87.18;101726.13;5096092;28;20036;-75
2023/10/10 13:25:48;;;;;;;12.73;7.10;;;;;;;19.14;86.75;101733.25;5096899;28;20044;-75
2023/10/10 13:28:17;;;;;;;13.77;6.57;;;;;;;19.09;87.69;101725.56;5097772;28;20073;-75
2023/10/10 13:30:46;;;;;;;10.73;6.20;;;;;;;19.06;88.32;101720.44;5094442;28;20059;-75
2023/10/10 13:33:16;;;;;;;9.45;6.28;;;;;;;19.02;88.00;101732.19;5098584;28;20343;-75
2023/10/10 13:35:42;;;;;;;14.52;5.57;;;;;;;18.97;88.50;101721.88;5090517;28;20100;-75
2023/10/10 13:38:08;;;;;;;9.25;5.78;;;;;;;18.95;89.22;101720.25;5098243;28;20426;-75
2023/10/10 13:40:45;;;;;;;6.90;5.43;;;;;;;18.92;89.74;101718.66;5088160;28;20050;-75
2023/10/10 13:43:16;;;;;;;14.88;6.80;;;;;;;18.89;88.03;101718.84;5080150;28;20315;-75
2023/10/10 13:45:48;;;;;;;7.80;6.22;;;;;;;18.87;88.05;101714.59;5088425;28;20032;-75
2023/10/10 13:48:18;;;;;;;10.00;5.70;;;;;;;18.84;87.85;101717.41;5093137;28;20074;-75
2023/10/10 13:50:45;;;;;;;11.30;6.03;;;;;;;18.80;88.53;101714.06;5096559;28;20350;-75
2023/10/10 13:53:14;;;;;;;6.93;5.30;;;;;;;18.78;88.59;101711.50;5095048;28;20046;-75
2023/10/10 13:55:45;;;;;;;7.38;5.43;;;;;;;18.78;87.78;101706.19;5097028;28;20050;-75
2023/10/10 13:58:12;;;;;;;8.77;6.10;;;;;;;18.79;88.62;101702.59;5079716;28;20067;-75
2023/10/10 14:00:41;;;;;;;7.38;5.13;;;;;;;18.83;89.40;101699.78;5095612;28;20040;-75
2023/10/10 14:03:06;;;;;;;;;;;;;;;18.84;89.13;101697.03;5097751;28;20035;-75